Markham, Canada
Current Conditions -  °F | °C
As of 7:00 AM on Tuesday 27 Jan 2015 (Local Time) from CYKZ Reporting Station
Light Snow Light Snow  
Wind Chill: -18°   Ceiling: 5000
Heat Index: -12°   Visibility: 8mi
Dew Point: -17°   Wind: 7mph
Humidity: 67%   Direction: 30°NNE
Pressure: 30.03"   Gusts: NA
Location:  43.86°N, 79.34°W
Report Text: CYKZ 271200Z 03006KT 8SM -SN BKN050 OVC063 M12/M17 A3003 RMKSC6SC2 /S01/ SLP184
Loading
Personal Weather Stations






























Interactive Weather Map New forecast layout! Learn more

10-Day Weather Forecast

Advertisements
Track Severe Weather on mobile